sensor_id;sensor_type;location;lat;lon;timestamp;pressure;altitude;pressure_sealevel;temperature;humidity
21236;BME280;10775;42.678;26.324;2022-10-17T00:02:15;100000.44;;;15.57;49.83
21236;BME280;10775;42.678;26.324;2022-10-17T00:04:41;100005.72;;;15.57;49.92
21236;BME280;10775;42.678;26.324;2022-10-17T00:07:07;99994.06;;;15.69;49.54
21236;BME280;10775;42.678;26.324;2022-10-17T00:09:32;99996.84;;;15.62;49.96
21236;BME280;10775;42.678;26.324;2022-10-17T00:11:58;100002.97;;;15.63;49.62
21236;BME280;10775;42.678;26.324;2022-10-17T00:14:24;100008.47;;;15.52;49.85
21236;BME280;10775;42.678;26.324;2022-10-17T00:16:50;100007.72;;;14.96;50.96
21236;BME280;10775;42.678;26.324;2022-10-17T00:19:15;99997.72;;;15.13;51.17
21236;BME280;10775;42.678;26.324;2022-10-17T00:21:41;100001.16;;;15.18;50.85
21236;BME280;10775;42.678;26.324;2022-10-17T00:24:07;99989.75;;;15.18;50.78
21236;BME280;10775;42.678;26.324;2022-10-17T00:26:33;99995.16;;;15.10;51.11
21236;BME280;10775;42.678;26.324;2022-10-17T00:28:59;99984.34;;;15.26;50.69
21236;BME280;10775;42.678;26.324;2022-10-17T00:31:25;99988.91;;;15.16;50.91
21236;BME280;10775;42.678;26.324;2022-10-17T00:33:51;99995.75;;;13.43;54.61
21236;BME280;10775;42.678;26.324;2022-10-17T00:36:24;99997.22;;;14.93;51.80
21236;BME280;10775;42.678;26.324;2022-10-17T00:38:52;99994.59;;;15.42;50.49
21236;BME280;10775;42.678;26.324;2022-10-17T00:41:22;100007.53;;;15.55;49.82
21236;BME280;10775;42.678;26.324;2022-10-17T00:43:56;99993.53;;;15.51;49.97
21236;BME280;10775;42.678;26.324;2022-10-17T00:46:27;99993.53;;;15.51;49.97
21236;BME280;10775;42.678;26.324;2022-10-17T00:48:58;100015.09;;;15.25;50.40
21236;BME280;10775;42.678;26.324;2022-10-17T00:51:50;99997.28;;;15.39;50.30
21236;BME280;10775;42.678;26.324;2022-10-17T00:54:20;100001.84;;;15.30;50.23
21236;BME280;10775;42.678;26.324;2022-10-17T00:56:47;100010.97;;;15.58;49.66
21236;BME280;10775;42.678;26.324;2022-10-17T00:59:15;100017.03;;;15.62;49.66
21236;BME280;10775;42.678;26.324;2022-10-17T01:01:59;100012.16;;;15.42;49.91
21236;BME280;10775;42.678;26.324;2022-10-17T01:04:26;100003.34;;;15.44;49.90
21236;BME280;10775;42.678;26.324;2022-10-17T01:06:52;100005.06;;;15.47;49.69
21236;BME280;10775;42.678;26.324;2022-10-17T01:09:18;100017.00;;;15.17;50.46
21236;BME280;10775;42.678;26.324;2022-10-17T01:11:51;100023.19;;;15.14;50.51
21236;BME280;10775;42.678;26.324;2022-10-17T01:14:26;100003.34;;;15.43;49.91
21236;BME280;10775;42.678;26.324;2022-10-17T01:16:57;100009.31;;;15.53;49.55
21236;BME280;10775;42.678;26.324;2022-10-17T01:22:22;99999.59;;;15.08;50.72
21236;BME280;10775;42.678;26.324;2022-10-17T01:33:08;100005.00;;;15.49;49.40
21236;BME280;10775;42.678;26.324;2022-10-17T01:35:38;100005.06;;;15.44;49.52
21236;BME280;10775;42.678;26.324;2022-10-17T01:40:55;99987.09;;;15.19;50.16
21236;BME280;10775;42.678;26.324;2022-10-17T01:43:39;99988.81;;;15.22;49.80
21236;BME280;10775;42.678;26.324;2022-10-17T01:46:32;100011.03;;;15.06;50.57
21236;BME280;10775;42.678;26.324;2022-10-17T01:48:59;100011.03;;;15.07;50.39
21236;BME280;10775;42.678;26.324;2022-10-17T01:51:30;100000.50;;;15.07;50.37
21236;BME280;10775;42.678;26.324;2022-10-17T01:54:12;99999.28;;;15.27;50.01
21236;BME280;10775;42.678;26.324;2022-10-17T01:56:41;100011.47;;;15.31;49.73
21236;BME280;10775;42.678;26.324;2022-10-17T01:59:21;100025.34;;;14.91;50.54
21236;BME280;10775;42.678;26.324;2022-10-17T02:01:52;100031.72;;;14.14;52.51
21236;BME280;10775;42.678;26.324;2022-10-17T02:04:19;100041.34;;;14.78;51.25
21236;BME280;10775;42.678;26.324;2022-10-17T02:06:45;100034.53;;;15.18;50.10
21236;BME280;10775;42.678;26.324;2022-10-17T02:09:19;100037.97;;;15.23;49.80
21236;BME280;10775;42.678;26.324;2022-10-17T02:14:59;100034.97;;;14.93;50.62
21236;BME280;10775;42.678;26.324;2022-10-17T02:20:34;100046.31;;;14.97;50.36
21236;BME280;10775;42.678;26.324;2022-10-17T02:23:10;100036.59;;;15.00;50.31
21236;BME280;10775;42.678;26.324;2022-10-17T02:28:20;100037.41;;;15.04;49.96
21236;BME280;10775;42.678;26.324;2022-10-17T02:31:07;100037.28;;;15.12;49.87
21236;BME280;10775;42.678;26.324;2022-10-17T02:33:55;100033.19;;;14.94;50.20
21236;BME280;10775;42.678;26.324;2022-10-17T02:36:28;100036.03;;;14.82;50.35
21236;BME280;10775;42.678;26.324;2022-10-17T02:38:56;100040.25;;;14.90;50.30
21236;BME280;10775;42.678;26.324;2022-10-17T02:41:24;100038.84;;;14.71;50.66
21236;BME280;10775;42.678;26.324;2022-10-17T02:43:52;100052.88;;;14.70;50.86
21236;BME280;10775;42.678;26.324;2022-10-17T02:46:20;100050.03;;;14.84;50.57
21236;BME280;10775;42.678;26.324;2022-10-17T02:54:19;100068.03;;;14.49;51.07
21236;BME280;10775;42.678;26.324;2022-10-17T02:57:13;100062.69;;;14.60;51.11
21236;BME280;10775;42.678;26.324;2022-10-17T02:59:42;100058.91;;;14.76;50.53
21236;BME280;10775;42.678;26.324;2022-10-17T03:02:09;100066.94;;;14.69;50.60
21236;BME280;10775;42.678;26.324;2022-10-17T03:04:35;100073.81;;;14.11;50.53
21236;BME280;10775;42.678;26.324;2022-10-17T03:07:02;100084.28;;;14.17;51.88
21236;BME280;10775;42.678;26.324;2022-10-17T03:09:29;100072.59;;;14.38;51.24
21236;BME280;10775;42.678;26.324;2022-10-17T03:11:55;100071.84;;;14.28;51.63
21236;BME280;10775;42.678;26.324;2022-10-17T03:14:22;100083.13;;;14.40;49.63
21236;BME280;10775;42.678;26.324;2022-10-17T03:16:49;100074.63;;;14.18;51.75
21236;BME280;10775;42.678;26.324;2022-10-17T03:19:14;100078.88;;;14.26;51.65
21236;BME280;10775;42.678;26.324;2022-10-17T03:21:40;100080.44;;;14.43;51.37
21236;BME280;10775;42.678;26.324;2022-10-17T03:24:06;100082.03;;;14.56;50.82
21236;BME280;10775;42.678;26.324;2022-10-17T03:26:31;100078.31;;;14.71;50.49
21236;BME280;10775;42.678;26.324;2022-10-17T03:28:57;100074.66;;;14.81;50.02
21236;BME280;10775;42.678;26.324;2022-10-17T03:31:23;100073.78;;;14.81;49.91
21236;BME280;10775;42.678;26.324;2022-10-17T03:33:50;100080.00;;;14.75;50.13
21236;BME280;10775;42.678;26.324;2022-10-17T03:36:18;100079.47;;;14.47;50.84
21236;BME280;10775;42.678;26.324;2022-10-17T03:38:45;100078.56;;;14.51;50.75
21236;BME280;10775;42.678;26.324;2022-10-17T03:41:12;100083.81;;;14.55;50.67
21236;BME280;10775;42.678;26.324;2022-10-17T03:43:38;100081.09;;;14.60;50.53
21236;BME280;10775;42.678;26.324;2022-10-17T03:46:04;100081.97;;;14.59;50.32
21236;BME280;10775;42.678;26.324;2022-10-17T03:48:31;100084.84;;;14.39;50.88
21236;BME280;10775;42.678;26.324;2022-10-17T03:51:04;100082.50;;;13.36;52.58
21236;BME280;10775;42.678;26.324;2022-10-17T03:53:30;100074.13;;;13.85;52.26
21236;BME280;10775;42.678;26.324;2022-10-17T03:58:40;100077.81;;;14.43;50.95
21236;BME280;10775;42.678;26.324;2022-10-17T04:01:07;100079.41;;;14.57;50.67
21236;BME280;10775;42.678;26.324;2022-10-17T04:03:34;100076.56;;;14.70;50.43
21236;BME280;10775;42.678;26.324;2022-10-17T04:06:01;100078.47;;;14.60;50.38
21236;BME280;10775;42.678;26.324;2022-10-17T04:08:28;100081.19;;;14.54;50.18
21236;BME280;10775;42.678;26.324;2022-10-17T04:11:02;100078.69;;;14.42;50.56
21236;BME280;10775;42.678;26.324;2022-10-17T04:13:28;100078.50;;;14.57;50.43
21236;BME280;10775;42.678;26.324;2022-10-17T04:16:03;100084.44;;;14.71;49.92
21236;BME280;10775;42.678;26.324;2022-10-17T04:18:29;100088.19;;;14.55;50.28
21236;BME280;10775;42.678;26.324;2022-10-17T04:20:56;100090.09;;;14.41;50.17
21236;BME280;10775;42.678;26.324;2022-10-17T04:23:23;100092.81;;;14.34;50.66
21236;BME280;10775;42.678;26.324;2022-10-17T04:25:55;100097.66;;;14.67;49.97
21236;BME280;10775;42.678;26.324;2022-10-17T04:28:20;100094.97;;;14.70;49.77
21236;BME280;10775;42.678;26.324;2022-10-17T04:30:56;100089.94;;;14.54;50.23
21236;BME280;10775;42.678;26.324;2022-10-17T04:33:22;100098.19;;;14.25;50.74
21236;BME280;10775;42.678;26.324;2022-10-17T04:35:58;100094.84;;;14.11;51.09
21236;BME280;10775;42.678;26.324;2022-10-17T04:38:24;100102.44;;;14.35;50.83
21236;BME280;10775;42.678;26.324;2022-10-17T04:40:50;100110.13;;;14.54;50.20
21236;BME280;10775;42.678;26.324;2022-10-17T04:43:16;100108.72;;;14.27;50.77
21236;BME280;10775;42.678;26.324;2022-10-17T04:45:56;100099.81;;;14.37;50.73
21236;BME280;10775;42.678;26.324;2022-10-17T04:48:26;100116.25;;;14.57;49.89
21236;BME280;10775;42.678;26.324;2022-10-17T04:50:59;100110.94;;;14.61;49.96
21236;BME280;10775;42.678;26.324;2022-10-17T04:53:25;100114.31;;;14.70;49.62
21236;BME280;10775;42.678;26.324;2022-10-17T04:55:53;100114.97;;;14.15;50.69
21236;BME280;10775;42.678;26.324;2022-10-17T04:58:19;100117.31;;;14.38;50.35
21236;BME280;10775;42.678;26.324;2022-10-17T05:00:45;100122.81;;;14.18;50.80
21236;BME280;10775;42.678;26.324;2022-10-17T05:03:11;100120.28;;;14.12;51.12
21236;BME280;10775;42.678;26.324;2022-10-17T05:05:39;100121.31;;;13.99;51.39
21236;BME280;10775;42.678;26.324;2022-10-17T05:08:06;100112.59;;;13.94;51.39
21236;BME280;10775;42.678;26.324;2022-10-17T05:10:44;100115.84;;;14.17;51.06
21236;BME280;10775;42.678;26.324;2022-10-17T05:13:12;100127.47;;;13.93;51.48
21236;BME280;10775;42.678;26.324;2022-10-17T05:15:38;100124.75;;;14.04;51.29
21236;BME280;10775;42.678;26.324;2022-10-17T05:18:04;100130.53;;;14.35;50.71
21236;BME280;10775;42.678;26.324;2022-10-17T05:20:31;100127.66;;;14.52;50.09
21236;BME280;10775;42.678;26.324;2022-10-17T05:23:02;100133.84;;;14.49;50.12
21236;BME280;10775;42.678;26.324;2022-10-17T05:25:27;100133.81;;;14.55;49.82
21236;BME280;10775;42.678;26.324;2022-10-17T05:27:53;100139.25;;;14.39;50.30
21236;BME280;10775;42.678;26.324;2022-10-17T05:30:20;100139.34;;;14.31;50.53
21236;BME280;10775;42.678;26.324;2022-10-17T05:32:50;100137.75;;;14.18;50.67
21236;BME280;10775;42.678;26.324;2022-10-17T05:35:20;100141.19;;;14.24;50.81
21236;BME280;10775;42.678;26.324;2022-10-17T05:37:47;100149.72;;;14.45;50.18
21236;BME280;10775;42.678;26.324;2022-10-17T05:40:14;100148.34;;;14.11;50.66
21236;BME280;10775;42.678;26.324;2022-10-17T05:42:47;100148.13;;;14.28;50.70
21236;BME280;10775;42.678;26.324;2022-10-17T05:45:14;100153.72;;;13.98;51.02
21236;BME280;10775;42.678;26.324;2022-10-17T05:47:41;100154.16;;;14.36;50.23
21236;BME280;10775;42.678;26.324;2022-10-17T05:50:08;100160.13;;;14.55;49.99
21236;BME280;10775;42.678;26.324;2022-10-17T05:52:34;100167.72;;;14.78;49.08
21236;BME280;10775;42.678;26.324;2022-10-17T05:55:03;100169.53;;;14.73;49.40
21236;BME280;10775;42.678;26.324;2022-10-17T05:57:29;100171.41;;;14.64;49.34
21236;BME280;10775;42.678;26.324;2022-10-17T05:59:56;100173.94;;;14.73;49.87
21236;BME280;10775;42.678;26.324;2022-10-17T06:02:22;100174.84;;;14.70;49.38
21236;BME280;10775;42.678;26.324;2022-10-17T06:04:49;100174.31;;;14.39;50.14
21236;BME280;10775;42.678;26.324;2022-10-17T06:07:18;100183.19;;;14.32;50.15
21236;BME280;10775;42.678;26.324;2022-10-17T06:09:44;100172.31;;;13.78;52.74
21236;BME280;10775;42.678;26.324;2022-10-17T06:12:11;100181.63;;;14.12;51.27
21236;BME280;10775;42.678;26.324;2022-10-17T06:14:39;100176.94;;;14.41;50.36
21236;BME280;10775;42.678;26.324;2022-10-17T06:17:05;100177.78;;;14.43;50.35
21236;BME280;10775;42.678;26.324;2022-10-17T06:19:32;100178.47;;;13.77;55.16
21236;BME280;10775;42.678;26.324;2022-10-17T06:21:58;100175.06;;;13.67;54.69
21236;BME280;10775;42.678;26.324;2022-10-17T06:24:25;100186.63;;;13.47;56.16
21236;BME280;10775;42.678;26.324;2022-10-17T06:26:52;100185.00;;;13.25;56.83
21236;BME280;10775;42.678;26.324;2022-10-17T06:29:17;100190.25;;;13.26;57.57
21236;BME280;10775;42.678;26.324;2022-10-17T06:31:44;100191.75;;;13.63;56.90
21236;BME280;10775;42.678;26.324;2022-10-17T06:34:10;100184.50;;;13.89;53.06
21236;BME280;10775;42.678;26.324;2022-10-17T06:36:36;100182.00;;;13.74;56.29
21236;BME280;10775;42.678;26.324;2022-10-17T06:39:02;100181.69;;;14.08;53.09
21236;BME280;10775;42.678;26.324;2022-10-17T06:41:27;100187.63;;;14.27;54.79
21236;BME280;10775;42.678;26.324;2022-10-17T06:43:56;100185.75;;;14.36;53.43
21236;BME280;10775;42.678;26.324;2022-10-17T06:46:22;100199.97;;;14.20;54.84
21236;BME280;10775;42.678;26.324;2022-10-17T06:48:51;100194.09;;;14.75;52.83
21236;BME280;10775;42.678;26.324;2022-10-17T06:51:17;100196.97;;;15.78;50.47
21236;BME280;10775;42.678;26.324;2022-10-17T06:53:42;100192.91;;;15.55;52.17
21236;BME280;10775;42.678;26.324;2022-10-17T06:56:09;100210.91;;;15.84;51.39
21236;BME280;10775;42.678;26.324;2022-10-17T06:58:37;100189.78;;;17.18;48.21
21236;BME280;10775;42.678;26.324;2022-10-17T07:01:08;100184.88;;;19.02;44.73
21236;BME280;10775;42.678;26.324;2022-10-17T07:03:35;100187.44;;;18.43;45.31
21236;BME280;10775;42.678;26.324;2022-10-17T07:06:00;100197.38;;;17.32;47.98
21236;BME280;10775;42.678;26.324;2022-10-17T07:08:27;100200.69;;;15.63;52.23
21236;BME280;10775;42.678;26.324;2022-10-17T07:10:54;100206.59;;;15.80;53.36
21236;BME280;10775;42.678;26.324;2022-10-17T07:13:20;100213.31;;;15.42;53.99
21236;BME280;10775;42.678;26.324;2022-10-17T07:15:46;100202.81;;;17.26;52.09
21236;BME280;10775;42.678;26.324;2022-10-17T07:18:12;100196.44;;;16.52;50.41
21236;BME280;10775;42.678;26.324;2022-10-17T07:20:38;100201.66;;;16.57;50.38
21236;BME280;10775;42.678;26.324;2022-10-17T07:23:04;100200.44;;;16.71;50.38
21236;BME280;10775;42.678;26.324;2022-10-17T07:25:30;100194.44;;;18.14;48.13
21236;BME280;10775;42.678;26.324;2022-10-17T07:27:56;100198.50;;;18.59;48.33
21236;BME280;10775;42.678;26.324;2022-10-17T07:30:22;100200.75;;;19.59;46.22
21236;BME280;10775;42.678;26.324;2022-10-17T07:32:48;100190.75;;;19.93;44.62
21236;BME280;10775;42.678;26.324;2022-10-17T07:35:16;100190.78;;;19.10;46.34
21236;BME280;10775;42.678;26.324;2022-10-17T07:37:42;100200.66;;;19.62;45.03
21236;BME280;10775;42.678;26.324;2022-10-17T07:40:09;100196.94;;;19.66;44.82
21236;BME280;10775;42.678;26.324;2022-10-17T07:42:35;100189.22;;;19.86;44.34
21236;BME280;10775;42.678;26.324;2022-10-17T07:45:02;100200.72;;;19.87;43.58
21236;BME280;10775;42.678;26.324;2022-10-17T07:47:28;100192.84;;;19.01;44.41
21236;BME280;10775;42.678;26.324;2022-10-17T07:49:56;100191.38;;;19.48;44.08
21236;BME280;10775;42.678;26.324;2022-10-17T07:52:22;100189.97;;;19.63;44.45
21236;BME280;10775;42.678;26.324;2022-10-17T07:54:48;100181.09;;;19.09;45.65
21236;BME280;10775;42.678;26.324;2022-10-17T07:57:14;100194.50;;;19.33;44.63
21236;BME280;10775;42.678;26.324;2022-10-17T07:59:40;100175.34;;;19.78;44.38
21236;BME280;10775;42.678;26.324;2022-10-17T08:02:07;100189.22;;;19.33;45.11
21236;BME280;10775;42.678;26.324;2022-10-17T08:04:33;100183.72;;;19.38;45.19
21236;BME280;10775;42.678;26.324;2022-10-17T08:07:00;100187.22;;;19.66;44.04
21236;BME280;10775;42.678;26.324;2022-10-17T08:09:26;100186.75;;;19.82;44.20
21236;BME280;10775;42.678;26.324;2022-10-17T08:11:52;100175.84;;;20.14;43.50
21236;BME280;10775;42.678;26.324;2022-10-17T08:14:18;100188.75;;;19.47;43.12
21236;BME280;10775;42.678;26.324;2022-10-17T08:16:44;100186.63;;;19.02;43.89
21236;BME280;10775;42.678;26.324;2022-10-17T08:19:10;100179.72;;;19.26;43.90
21236;BME280;10775;42.678;26.324;2022-10-17T08:21:36;100185.69;;;19.59;44.46
21236;BME280;10775;42.678;26.324;2022-10-17T08:24:02;100191.69;;;19.38;44.84
21236;BME280;10775;42.678;26.324;2022-10-17T08:26:28;100182.03;;;19.08;44.19
21236;BME280;10775;42.678;26.324;2022-10-17T08:28:55;100187.16;;;18.85;44.52
21236;BME280;10775;42.678;26.324;2022-10-17T08:31:21;100185.00;;;18.98;45.19
21236;BME280;10775;42.678;26.324;2022-10-17T08:33:48;100184.63;;;18.80;44.46
21236;BME280;10775;42.678;26.324;2022-10-17T08:36:18;100175.69;;;18.84;44.49
21236;BME280;10775;42.678;26.324;2022-10-17T08:38:44;100190.69;;;19.14;43.94
21236;BME280;10775;42.678;26.324;2022-10-17T08:46:20;100181.63;;;19.21;43.29
21236;BME280;10775;42.678;26.324;2022-10-17T08:48:47;100183.47;;;19.19;44.17
21236;BME280;10775;42.678;26.324;2022-10-17T08:51:23;100178.75;;;19.55;42.79
21236;BME280;10775;42.678;26.324;2022-10-17T08:56:39;100176.34;;;20.01;42.46
21236;BME280;10775;42.678;26.324;2022-10-17T08:59:27;100175.81;;;20.16;42.08
21236;BME280;10775;42.678;26.324;2022-10-17T09:02:03;100180.41;;;19.86;42.31
21236;BME280;10775;42.678;26.324;2022-10-17T09:04:42;100171.75;;;19.26;42.84
21236;BME280;10775;42.678;26.324;2022-10-17T09:07:26;100179.16;;;19.43;43.24
21236;BME280;10775;42.678;26.324;2022-10-17T09:10:11;100168.38;;;20.01;42.17
21236;BME280;10775;42.678;26.324;2022-10-17T09:15:39;100172.84;;;20.49;41.63
21236;BME280;10775;42.678;26.324;2022-10-17T09:18:26;100169.41;;;20.45;41.06
21236;BME280;10775;42.678;26.324;2022-10-17T09:21:00;100166.94;;;19.92;41.80
21236;BME280;10775;42.678;26.324;2022-10-17T09:23:48;100168.44;;;19.74;42.08
21236;BME280;10775;42.678;26.324;2022-10-17T09:26:15;100169.94;;;19.81;42.12
21236;BME280;10775;42.678;26.324;2022-10-17T09:28:49;100176.06;;;19.83;41.74
21236;BME280;10775;42.678;26.324;2022-10-17T09:31:22;100172.69;;;20.05;41.44
21236;BME280;10775;42.678;26.324;2022-10-17T09:33:50;100170.66;;;20.11;41.49
21236;BME280;10775;42.678;26.324;2022-10-17T09:36:19;100169.34;;;19.98;41.34
21236;BME280;10775;42.678;26.324;2022-10-17T09:38:52;100163.47;;;20.15;41.48
21236;BME280;10775;42.678;26.324;2022-10-17T09:41:43;100166.34;;;20.32;41.25
21236;BME280;10775;42.678;26.324;2022-10-17T09:44:14;100169.34;;;20.23;41.14
21236;BME280;10775;42.678;26.324;2022-10-17T09:46:46;100154.31;;;20.22;40.78
21236;BME280;10775;42.678;26.324;2022-10-17T09:49:34;100151.66;;;20.22;41.62
21236;BME280;10775;42.678;26.324;2022-10-17T09:52:03;100154.47;;;20.42;40.32
21236;BME280;10775;42.678;26.324;2022-10-17T09:57:08;100145.84;;;20.61;39.91
21236;BME280;10775;42.678;26.324;2022-10-17T09:59:40;100161.41;;;20.47;40.30
21236;BME280;10775;42.678;26.324;2022-10-17T10:02:16;100149.22;;;19.92;41.14
21236;BME280;10775;42.678;26.324;2022-10-17T10:04:59;100153.69;;;19.90;41.23
21236;BME280;10775;42.678;26.324;2022-10-17T10:07:30;100147.00;;;20.05;40.86
21236;BME280;10775;42.678;26.324;2022-10-17T10:09:57;100146.28;;;20.00;40.50
21236;BME280;10775;42.678;26.324;2022-10-17T10:12:32;100147.72;;;19.84;41.46
21236;BME280;10775;42.678;26.324;2022-10-17T10:14:59;100148.28;;;19.93;40.97
21236;BME280;10775;42.678;26.324;2022-10-17T10:17:37;100139.50;;;19.91;41.35
21236;BME280;10775;42.678;26.324;2022-10-17T10:21:02;100139.06;;;20.04;40.66
21236;BME280;10775;42.678;26.324;2022-10-17T10:23:17;100134.03;;;20.21;41.35
21236;BME280;10775;42.678;26.324;2022-10-17T10:28:17;100135.03;;;20.17;42.27
21236;BME280;10775;42.678;26.324;2022-10-17T10:30:47;100130.28;;;20.02;41.33
21236;BME280;10775;42.678;26.324;2022-10-17T10:33:27;100126.38;;;20.12;42.77
21236;BME280;10775;42.678;26.324;2022-10-17T10:36:00;100131.13;;;20.27;42.05
21236;BME280;10775;42.678;26.324;2022-10-17T10:38:30;100131.09;;;20.29;40.95
21236;BME280;10775;42.678;26.324;2022-10-17T10:41:04;100130.91;;;20.33;41.69
21236;BME280;10775;42.678;26.324;2022-10-17T10:43:34;100128.72;;;20.68;41.68
21236;BME280;10775;42.678;26.324;2022-10-17T10:46:04;100124.22;;;20.70;40.81
21236;BME280;10775;42.678;26.324;2022-10-17T10:48:37;100127.00;;;20.44;40.39
21236;BME280;10775;42.678;26.324;2022-10-17T10:51:16;100124.78;;;20.78;39.39
21236;BME280;10775;42.678;26.324;2022-10-17T10:56:22;100118.56;;;20.79;41.28
21236;BME280;10775;42.678;26.324;2022-10-17T11:06:52;100119.47;;;20.78;38.63
21236;BME280;10775;42.678;26.324;2022-10-17T11:14:55;100107.03;;;20.57;40.60
21236;BME280;10775;42.678;26.324;2022-10-17T11:17:34;100105.19;;;20.35;41.85
21236;BME280;10775;42.678;26.324;2022-10-17T11:22:41;100101.38;;;21.10;39.76
21236;BME280;10775;42.678;26.324;2022-10-17T11:27:36;100087.84;;;20.72;40.05
21236;BME280;10775;42.678;26.324;2022-10-17T11:30:03;100083.06;;;20.80;39.20
21236;BME280;10775;42.678;26.324;2022-10-17T11:32:45;100079.31;;;20.86;38.90
21236;BME280;10775;42.678;26.324;2022-10-17T11:40:51;100080.59;;;20.98;38.82
21236;BME280;10775;42.678;26.324;2022-10-17T11:43:58;100075.03;;;20.60;39.33
21236;BME280;10775;42.678;26.324;2022-10-17T11:46:27;100074.69;;;20.69;39.38
21236;BME280;10775;42.678;26.324;2022-10-17T11:49:06;100072.16;;;20.66;38.85
21236;BME280;10775;42.678;26.324;2022-10-17T11:54:42;100072.84;;;20.71;40.85
21236;BME280;10775;42.678;26.324;2022-10-17T11:57:28;100069.38;;;20.46;40.62
21236;BME280;10775;42.678;26.324;2022-10-17T12:00:17;100074.97;;;20.38;40.28
21236;BME280;10775;42.678;26.324;2022-10-17T12:05:56;100073.91;;;20.66;38.57
21236;BME280;10775;42.678;26.324;2022-10-17T12:08:35;100085.22;;;20.71;39.05
21236;BME280;10775;42.678;26.324;2022-10-17T12:11:13;100077.88;;;20.77;40.88
21236;BME280;10775;42.678;26.324;2022-10-17T12:13:46;100077.75;;;20.58;37.99
21236;BME280;10775;42.678;26.324;2022-10-17T12:18:45;100080.72;;;20.49;38.37
21236;BME280;10775;42.678;26.324;2022-10-17T12:21:11;100084.06;;;20.56;37.88
21236;BME280;10775;42.678;26.324;2022-10-17T12:23:37;100081.97;;;20.64;39.58
21236;BME280;10775;42.678;26.324;2022-10-17T12:26:07;100079.53;;;20.58;37.57
21236;BME280;10775;42.678;26.324;2022-10-17T12:31:09;100074.78;;;20.88;39.65
21236;BME280;10775;42.678;26.324;2022-10-17T12:34:03;100083.56;;;20.68;37.89
21236;BME280;10775;42.678;26.324;2022-10-17T12:49:36;100076.47;;;20.91;37.55
21236;BME280;10775;42.678;26.324;2022-10-17T12:57:47;100072.44;;;20.58;36.72
21236;BME280;10775;42.678;26.324;2022-10-17T13:00:18;100087.63;;;20.31;37.67
21236;BME280;10775;42.678;26.324;2022-10-17T13:02:46;100075.84;;;20.38;37.03
21236;BME280;10775;42.678;26.324;2022-10-17T13:05:25;100082.75;;;20.42;36.38
21236;BME280;10775;42.678;26.324;2022-10-17T13:07:52;100081.28;;;20.35;36.39
21236;BME280;10775;42.678;26.324;2022-10-17T13:10:22;100079.22;;;20.42;36.48
21236;BME280;10775;42.678;26.324;2022-10-17T13:12:50;100085.78;;;20.33;37.67
21236;BME280;10775;42.678;26.324;2022-10-17T13:15:18;100089.03;;;20.40;37.25
21236;BME280;10775;42.678;26.324;2022-10-17T13:17:54;100098.50;;;20.47;40.03
21236;BME280;10775;42.678;26.324;2022-10-17T13:20:22;100095.91;;;20.22;38.34
21236;BME280;10775;42.678;26.324;2022-10-17T13:22:50;100086.06;;;20.26;38.98
21236;BME280;10775;42.678;26.324;2022-10-17T13:25:18;100090.16;;;20.11;37.51
21236;BME280;10775;42.678;26.324;2022-10-17T13:27:47;100086.22;;;20.21;38.37
21236;BME280;10775;42.678;26.324;2022-10-17T13:30:32;100090.72;;;20.19;38.60
21236;BME280;10775;42.678;26.324;2022-10-17T13:32:59;100096.97;;;20.18;39.00
21236;BME280;10775;42.678;26.324;2022-10-17T13:35:35;100099.09;;;20.32;38.77
21236;BME280;10775;42.678;26.324;2022-10-17T13:38:04;100089.50;;;20.04;38.45
21236;BME280;10775;42.678;26.324;2022-10-17T13:40:40;100092.22;;;20.03;38.87
21236;BME280;10775;42.678;26.324;2022-10-17T13:43:18;100095.16;;;20.18;42.41
21236;BME280;10775;42.678;26.324;2022-10-17T13:45:56;100100.31;;;20.00;39.11
21236;BME280;10775;42.678;26.324;2022-10-17T13:48:27;100098.28;;;20.06;38.98
21236;BME280;10775;42.678;26.324;2022-10-17T13:51:01;100095.78;;;20.02;39.48
21236;BME280;10775;42.678;26.324;2022-10-17T13:53:35;100085.38;;;19.72;39.50
21236;BME280;10775;42.678;26.324;2022-10-17T13:56:05;100102.16;;;19.72;40.12
21236;BME280;10775;42.678;26.324;2022-10-17T13:58:49;100099.69;;;19.66;39.67
21236;BME280;10775;42.678;26.324;2022-10-17T14:01:16;100093.25;;;19.73;41.03
21236;BME280;10775;42.678;26.324;2022-10-17T14:03:45;100103.16;;;19.68;40.60
21236;BME280;10775;42.678;26.324;2022-10-17T14:06:15;100096.31;;;19.61;41.64
21236;BME280;10775;42.678;26.324;2022-10-17T14:08:51;100107.50;;;19.44;39.97
21236;BME280;10775;42.678;26.324;2022-10-17T14:11:25;100105.09;;;19.37;41.65
21236;BME280;10775;42.678;26.324;2022-10-17T14:13:53;100106.53;;;19.47;40.36
21236;BME280;10775;42.678;26.324;2022-10-17T14:16:22;100109.22;;;19.45;39.86
21236;BME280;10775;42.678;26.324;2022-10-17T14:18:50;100110.97;;;19.20;39.72
21236;BME280;10775;42.678;26.324;2022-10-17T14:21:22;100118.50;;;19.32;42.96
21236;BME280;10775;42.678;26.324;2022-10-17T14:23:49;100124.84;;;19.28;40.83
21236;BME280;10775;42.678;26.324;2022-10-17T14:26:21;100120.34;;;19.30;41.20
21236;BME280;10775;42.678;26.324;2022-10-17T14:29:02;100122.69;;;19.13;42.44
21236;BME280;10775;42.678;26.324;2022-10-17T14:31:31;100121.66;;;18.90;40.59
21236;BME280;10775;42.678;26.324;2022-10-17T14:33:58;100122.22;;;19.00;41.73
21236;BME280;10775;42.678;26.324;2022-10-17T14:36:39;100134.94;;;18.88;41.05
21236;BME280;10775;42.678;26.324;2022-10-17T14:39:22;100126.84;;;18.93;41.10
21236;BME280;10775;42.678;26.324;2022-10-17T14:41:49;100131.56;;;18.83;42.46